Terminal Aerodrome Forecast
Issued by NWS Sterling, VA

Home | Current Version | Previous Version | Text Only | Print | Product List | Glossary On
Versions: 1 2 3 4 5 6 7 8 9 10 11 12 13 14 15 16 17 18 19 20 21 22 23 24 25
000
FTUS41 KLWX 071442 AAA
TAFBWI
TAF AMD
KBWI 071442Z 0715/0818 30003KT P6SM FEW040 BKN140
     FM072200 31007KT P6SM FEW200
     FM080200 VRB03KT P6SM SCT200
     FM080700 VRB03KT P6SM SCT030 BKN130
     FM081500 29008KT P6SM SCT030 BKN130=

USA.gov is the U.S. government's official web portal to all federal, state and local government web resources and services.